Time;durP1;ratioP1;P1;durP2;ratioP2;P2;SDS_P1;SDS_P2;PMS_P1;PMS_P2;Temp;Humidity;BMP_temperature;BMP_pressure;BME280_temperature;BME280_humidity;BME280_pressure;Samples;Min_cycle;Max_cycle;Signal;HPM_P1;HPM_P2
2021/01/06 00:02:57;;;;;;;6.23;5.60;;;4.70;99.90;;;;;;6253293;28;20474;-65
2021/01/06 00:06:04;;;;;;;5.00;4.50;;;4.80;99.90;;;;;;6253148;28;20565;-71
2021/01/06 00:09:07;;;;;;;5.83;5.20;;;4.80;99.90;;;;;;6253093;28;20474;-69
2021/01/06 00:12:09;;;;;;;5.90;5.30;;;4.80;99.90;;;;;;6252734;28;20479;-72
2021/01/06 00:15:15;;;;;;;5.23;4.60;;;4.90;99.90;;;;;;6252356;28;20814;-64
2021/01/06 00:18:17;;;;;;;6.73;6.13;;;4.80;99.90;;;;;;6264993;28;20553;-63
2021/01/06 00:21:20;;;;;;;5.80;5.20;;;4.90;99.90;;;;;;6277435;28;20478;-64
2021/01/06 00:24:22;;;;;;;4.90;4.40;;;4.90;99.90;;;;;;6277415;28;21067;-63
2021/01/06 00:27:24;;;;;;;6.40;5.23;;;4.80;99.90;;;;;;6277219;28;20485;-63
2021/01/06 00:30:30;;;;;;;5.67;4.87;;;4.80;99.90;;;;;;6277435;28;20478;-63
2021/01/06 00:33:35;;;;;;;5.93;5.20;;;4.80;99.90;;;;;;6276978;28;20966;-63
2021/01/06 00:36:37;;;;;;;4.97;4.47;;;4.70;99.90;;;;;;6277197;28;20493;-62
2021/01/06 00:39:39;;;;;;;6.77;6.10;;;4.80;99.90;;;;;;6277151;28;20474;-63
2021/01/06 00:42:41;;;;;;;5.90;5.30;;;4.80;99.90;;;;;;6276993;28;20466;-62
2021/01/06 00:45:45;;;;;;;7.50;5.60;;;4.80;99.90;;;;;;6276724;28;20478;-63
2021/01/06 00:48:48;;;;;;;5.90;5.30;;;4.80;99.90;;;;;;6275978;28;20467;-62
2021/01/06 00:51:50;;;;;;;6.40;5.37;;;4.70;99.90;;;;;;6258691;28;20479;-62
2021/01/06 00:54:53;;;;;;;6.03;5.43;;;4.70;99.90;;;;;;6251840;28;20959;-62
2021/01/06 00:57:55;;;;;;;5.47;4.90;;;4.80;99.90;;;;;;6260839;28;20470;-63
2021/01/06 01:01:00;;;;;;;6.50;5.73;;;4.80;99.90;;;;;;6276288;28;20556;-62
2021/01/06 01:04:03;;;;;;;6.03;5.33;;;4.80;99.90;;;;;;6276263;28;20485;-62
2021/01/06 01:07:05;;;;;;;7.27;5.40;;;4.80;99.90;;;;;;6274829;28;20825;-64
2021/01/06 01:10:08;;;;;;;6.60;5.00;;;4.90;99.90;;;;;;6274119;28;20470;-64
2021/01/06 01:13:12;;;;;;;6.97;5.77;;;4.90;99.90;;;;;;6274125;28;20467;-66
2021/01/06 01:16:15;;;;;;;7.10;5.73;;;4.80;99.90;;;;;;6272708;28;20485;-66
2021/01/06 01:19:18;;;;;;;6.63;6.00;;;4.50;99.90;;;;;;6273852;28;20474;-63
2021/01/06 01:22:20;;;;;;;7.67;6.20;;;4.40;99.90;;;;;;6274780;28;20816;-63
2021/01/06 01:25:25;;;;;;;7.10;5.90;;;4.50;99.90;;;;;;6271210;28;20516;-63
2021/01/06 01:28:27;;;;;;;9.67;6.77;;;4.50;99.90;;;;;;6275507;28;20493;-64
2021/01/06 01:31:35;;;;;;;7.90;6.00;;;4.60;99.90;;;;;;6275539;28;20497;-64
2021/01/06 01:34:37;;;;;;;6.00;5.37;;;4.60;99.90;;;;;;6275743;28;20475;-64
2021/01/06 01:37:42;;;;;;;7.20;5.20;;;4.70;99.90;;;;;;6275659;28;20474;-63
2021/01/06 01:40:44;;;;;;;6.30;5.70;;;4.60;99.90;;;;;;6275487;28;20486;-64
2021/01/06 01:43:47;;;;;;;5.87;5.10;;;4.70;99.90;;;;;;6275197;28;20505;-64
2021/01/06 01:47:13;;;;;;;6.20;5.00;;;4.70;99.90;;;;;;6275456;28;20458;-63
2021/01/06 01:50:18;;;;;;;7.37;5.17;;;4.70;99.90;;;;;;6275156;28;20467;-64
2021/01/06 01:53:28;;;;;;;6.07;4.83;;;4.70;99.90;;;;;;6275734;28;20470;-63
2021/01/06 01:56:41;;;;;;;6.90;4.97;;;4.70;99.90;;;;;;6275301;28;20818;-63
2021/01/06 01:59:49;;;;;;;5.50;4.17;;;4.60;99.90;;;;;;6275483;28;20593;-63
2021/01/06 02:03:04;;;;;;;4.63;4.23;;;4.50;99.90;;;;;;6275437;28;20467;-63
2021/01/06 02:06:12;;;;;;;4.70;4.30;;;4.50;99.90;;;;;;6275157;28;20481;-63
2021/01/06 02:09:20;;;;;;;5.77;4.60;;;4.40;99.90;;;;;;6275280;28;20478;-63
2021/01/06 02:12:30;;;;;;;5.00;4.50;;;4.30;99.90;;;;;;6275036;28;20486;-63
2021/01/06 02:15:39;;;;;;;6.10;4.30;;;4.20;99.90;;;;;;6274580;28;20479;-63
2021/01/06 02:18:42;;;;;;;4.63;4.10;;;4.20;99.90;;;;;;6274969;28;20475;-63
2021/01/06 02:21:45;;;;;;;6.93;5.90;;;4.30;99.90;;;;;;6274593;28;20565;-64
2021/01/06 02:24:50;;;;;;;4.90;4.40;;;4.30;99.90;;;;;;6274364;28;20490;-63
2021/01/06 02:27:55;;;;;;;6.47;4.63;;;4.30;99.90;;;;;;6264539;28;20463;-64
2021/01/06 02:30:57;;;;;;;5.20;4.70;;;4.40;99.90;;;;;;6273595;28;20842;-63
2021/01/06 02:34:00;;;;;;;4.70;4.20;;;4.50;99.90;;;;;;6272638;28;20470;-63
2021/01/06 02:37:04;;;;;;;5.53;4.50;;;4.60;99.90;;;;;;6272630;28;20485;-64
2021/01/06 02:40:09;;;;;;;4.70;4.20;;;4.60;99.90;;;;;;6272551;28;20497;-64
2021/01/06 02:43:12;;;;;;;5.13;4.63;;;4.50;99.90;;;;;;6272446;28;20786;-64
2021/01/06 02:46:14;;;;;;;4.17;3.70;;;4.60;99.90;;;;;;6272872;28;20475;-64
2021/01/06 02:49:19;;;;;;;6.70;4.83;;;4.50;99.90;;;;;;6274753;28;20485;-63
2021/01/06 02:52:31;;;;;;;4.63;4.13;;;4.50;99.90;;;;;;6273751;28;20485;-64
2021/01/06 02:55:35;;;;;;;4.90;4.40;;;4.50;99.90;;;;;;6274495;28;20478;-63
2021/01/06 02:58:39;;;;;;;4.17;3.57;;;4.50;99.90;;;;;;6273112;28;20485;-63
2021/01/06 03:01:44;;;;;;;4.33;3.93;;;4.60;99.90;;;;;;6274381;28;20528;-63
2021/01/06 03:04:51;;;;;;;3.70;3.40;;;4.60;99.90;;;;;;6274487;28;20493;-63
2021/01/06 03:07:55;;;;;;;2.97;2.67;;;4.60;99.90;;;;;;6275039;28;20456;-63
2021/01/06 03:10:57;;;;;;;4.13;3.73;;;4.60;99.90;;;;;;6276504;28;20462;-63
2021/01/06 03:13:59;;;;;;;3.50;3.20;;;4.60;99.90;;;;;;6279157;28;20434;-63
2021/01/06 03:17:04;;;;;;;3.07;2.73;;;4.60;99.90;;;;;;6279392;28;20446;-63
2021/01/06 03:20:11;;;;;;;3.10;2.90;;;4.60;99.90;;;;;;6278935;28;20890;-64
2021/01/06 03:23:18;;;;;;;3.70;3.40;;;4.60;99.90;;;;;;6279031;28;20533;-64
2021/01/06 03:26:24;;;;;;;2.90;2.60;;;4.60;99.90;;;;;;6279971;28;20478;-63
2021/01/06 03:29:30;;;;;;;3.60;3.30;;;4.50;99.90;;;;;;6274143;28;20474;-63
2021/01/06 03:32:38;;;;;;;4.10;2.90;;;4.60;99.90;;;;;;6278997;28;20561;-63
2021/01/06 03:35:43;;;;;;;3.60;3.30;;;4.60;99.90;;;;;;6278776;28;20470;-63
2021/01/06 03:38:55;;;;;;;3.70;2.70;;;4.60;99.90;;;;;;6278933;28;20544;-63
2021/01/06 03:41:59;;;;;;;3.87;3.50;;;4.60;99.90;;;;;;6278607;28;20471;-63
2021/01/06 03:45:03;;;;;;;3.60;3.30;;;4.70;99.90;;;;;;6278342;28;20811;-63
2021/01/06 03:48:12;;;;;;;3.37;3.07;;;4.60;99.90;;;;;;6278763;28;20473;-63
2021/01/06 03:51:24;;;;;;;4.03;3.60;;;4.60;99.90;;;;;;6278941;28;20489;-64
2021/01/06 03:54:36;;;;;;;4.53;4.13;;;4.60;99.90;;;;;;6278451;28;20485;-63
2021/01/06 03:57:39;;;;;;;3.80;3.50;;;4.60;99.90;;;;;;6278320;28;20481;-64
2021/01/06 04:00:47;;;;;;;5.90;4.60;;;4.70;99.90;;;;;;6278143;28;20466;-63
2021/01/06 04:03:58;;;;;;;3.57;3.27;;;4.70;99.90;;;;;;6278544;28;20489;-64
2021/01/06 04:07:01;;;;;;;4.53;3.83;;;4.70;99.90;;;;;;6278008;28;20489;-63
2021/01/06 04:10:08;;;;;;;4.43;3.87;;;4.70;99.90;;;;;;6277898;28;20474;-63
2021/01/06 04:13:10;;;;;;;4.40;4.00;;;4.70;99.90;;;;;;6277861;28;20475;-63
2021/01/06 04:16:13;;;;;;;5.23;4.73;;;4.70;99.90;;;;;;6264610;28;20490;-63
2021/01/06 04:19:15;;;;;;;5.73;5.20;;;4.70;99.90;;;;;;6253539;28;20955;-63
2021/01/06 04:22:24;;;;;;;4.63;4.23;;;4.70;99.90;;;;;;6273922;28;20485;-64
2021/01/06 04:25:30;;;;;;;5.50;5.00;;;4.70;99.90;;;;;;6277216;28;20493;-63
2021/01/06 04:28:36;;;;;;;5.20;4.70;;;4.60;99.90;;;;;;6277401;28;20785;-63
2021/01/06 04:31:38;;;;;;;5.87;4.73;;;4.70;99.90;;;;;;6277425;28;20536;-63
2021/01/06 04:34:40;;;;;;;5.10;4.40;;;4.70;99.90;;;;;;6277666;28;20465;-63
2021/01/06 04:37:42;;;;;;;4.47;4.07;;;4.70;99.90;;;;;;6277168;28;20470;-64
2021/01/06 04:40:48;;;;;;;4.57;4.10;;;4.70;99.90;;;;;;6277082;28;20474;-64
2021/01/06 04:44:01;;;;;;;4.30;4.00;;;4.70;99.90;;;;;;6277103;28;20446;-62
2021/01/06 04:47:24;;;;;;;4.47;3.90;;;4.70;99.90;;;;;;6277041;28;20442;-59
2021/01/06 04:50:45;;;;;;;5.17;3.90;;;4.70;99.90;;;;;;6276918;28;20475;-60
2021/01/06 04:54:19;;;;;;;4.40;4.00;;;4.70;99.90;;;;;;6276923;28;20777;-60
2021/01/06 04:57:36;;;;;;;5.50;4.33;;;4.80;99.90;;;;;;6277020;28;20485;-60
2021/01/06 05:00:49;;;;;;;4.43;3.77;;;4.80;99.90;;;;;;6276799;28;20474;-60
2021/01/06 05:04:04;;;;;;;4.43;4.03;;;4.80;99.90;;;;;;6276752;28;20481;-63
2021/01/06 05:07:14;;;;;;;4.73;3.93;;;4.80;99.90;;;;;;6277465;28;20531;-64
2021/01/06 05:10:27;;;;;;;4.20;3.80;;;4.80;99.90;;;;;;6276485;28;20485;-63
2021/01/06 05:13:38;;;;;;;4.50;4.10;;;4.80;99.90;;;;;;6276356;28;20822;-63
2021/01/06 05:16:43;;;;;;;3.87;3.57;;;4.70;99.90;;;;;;6276218;28;20479;-63
2021/01/06 05:19:47;;;;;;;5.60;5.10;;;4.70;99.90;;;;;;6276491;28;20485;-64
2021/01/06 05:22:50;;;;;;;4.13;3.83;;;4.60;99.90;;;;;;6252336;28;20467;-63
2021/01/06 05:25:55;;;;;;;4.57;4.17;;;4.60;99.90;;;;;;6251367;28;20598;-63
2021/01/06 05:28:59;;;;;;;4.10;3.70;;;4.60;99.90;;;;;;6261689;28;20898;-63
2021/01/06 05:32:01;;;;;;;4.30;3.80;;;4.60;99.90;;;;;;6276169;28;20472;-63
2021/01/06 05:35:07;;;;;;;4.33;4.00;;;4.60;99.90;;;;;;6275961;28;20434;-63
2021/01/06 05:38:12;;;;;;;5.20;3.80;;;4.60;99.90;;;;;;6267500;28;20556;-64
2021/01/06 05:41:15;;;;;;;5.20;4.70;;;4.60;99.90;;;;;;6275710;28;20466;-63
2021/01/06 05:44:18;;;;;;;4.33;3.37;;;4.70;99.90;;;;;;6275597;28;20475;-63
2021/01/06 05:47:28;;;;;;;5.30;4.30;;;4.80;99.90;;;;;;6275835;28;20485;-63
2021/01/06 05:50:34;;;;;;;3.63;3.43;;;4.80;99.90;;;;;;6275746;28;20474;-64
2021/01/06 05:53:43;;;;;;;4.03;3.73;;;4.80;99.90;;;;;;6275624;28;20928;-64
2021/01/06 05:57:14;;;;;;;4.47;3.60;;;4.80;99.90;;;;;;6275550;28;20477;-63
2021/01/06 06:00:42;;;;;;;4.10;3.70;;;4.80;99.90;;;;;;6275653;28;20513;-63
2021/01/06 06:04:05;;;;;;;4.57;3.67;;;4.80;99.90;;;;;;6275670;28;20477;-64
2021/01/06 06:07:18;;;;;;;4.27;3.87;;;4.80;99.90;;;;;;6275275;28;20458;-64
2021/01/06 06:10:34;;;;;;;4.30;3.90;;;4.80;99.90;;;;;;6275232;28;20481;-63
2021/01/06 06:13:56;;;;;;;5.17;4.67;;;4.80;99.90;;;;;;6274959;28;20470;-63
2021/01/06 06:17:04;;;;;;;5.40;4.50;;;4.80;99.90;;;;;;6274742;28;21116;-63
2021/01/06 06:20:19;;;;;;;4.90;4.40;;;4.90;99.90;;;;;;6274902;28;20792;-63
2021/01/06 06:23:46;;;;;;;4.07;3.77;;;4.90;99.90;;;;;;6252859;28;20480;-63
2021/01/06 06:27:01;;;;;;;6.57;5.77;;;4.90;99.90;;;;;;6249708;28;21018;-64
2021/01/06 06:30:33;;;;;;;5.40;4.90;;;4.80;99.90;;;;;;6269455;28;21080;-63
2021/01/06 06:33:36;;;;;;;4.40;4.00;;;4.80;99.90;;;;;;6274590;28;20462;-64
2021/01/06 06:36:43;;;;;;;5.63;3.87;;;4.80;99.90;;;;;;6274831;28;20473;-63
2021/01/06 06:39:48;;;;;;;4.77;3.93;;;4.80;99.90;;;;;;6274778;28;20470;-63
2021/01/06 06:42:59;;;;;;;6.63;4.40;;;4.80;99.90;;;;;;6274754;28;20470;-64
2021/01/06 06:46:11;;;;;;;4.60;4.20;;;4.80;99.90;;;;;;6273972;28;20480;-64
2021/01/06 06:49:25;;;;;;;4.40;4.00;;;4.80;99.90;;;;;;6274470;28;20478;-64
2021/01/06 06:52:33;;;;;;;4.87;4.47;;;4.70;99.90;;;;;;6274269;28;20958;-64
2021/01/06 06:55:44;;;;;;;4.97;4.17;;;4.70;99.90;;;;;;6274229;28;20470;-63
2021/01/06 06:58:51;;;;;;;5.47;4.43;;;4.70;99.90;;;;;;6274139;28;20474;-64
2021/01/06 07:01:58;;;;;;;5.17;4.67;;;4.70;99.90;;;;;;6274398;28;20451;-63
2021/01/06 07:05:04;;;;;;;6.67;5.97;;;4.70;99.90;;;;;;6274246;28;20845;-63
2021/01/06 07:08:13;;;;;;;6.93;6.23;;;4.70;99.90;;;;;;6274386;28;20434;-63
2021/01/06 07:11:29;;;;;;;5.97;5.13;;;4.70;99.90;;;;;;6274625;28;20466;-63
2021/01/06 07:14:34;;;;;;;7.47;5.23;;;4.70;99.90;;;;;;6273994;28;20470;-63
2021/01/06 07:17:41;;;;;;;6.60;5.47;;;4.70;99.90;;;;;;6274345;28;20489;-63
2021/01/06 07:20:44;;;;;;;7.27;5.80;;;4.60;99.90;;;;;;6274484;28;20470;-63
2021/01/06 07:23:51;;;;;;;7.33;6.67;;;4.60;99.90;;;;;;6274571;28;20575;-63
2021/01/06 07:26:56;;;;;;;9.23;6.20;;;4.60;99.90;;;;;;6274398;28;20478;-64
2021/01/06 07:29:58;;;;;;;6.93;6.10;;;4.70;99.90;;;;;;6273857;28;20492;-63
2021/01/06 07:33:10;;;;;;;5.70;5.20;;;4.70;99.90;;;;;;6274004;28;20485;-63
2021/01/06 07:36:17;;;;;;;8.00;6.07;;;4.70;99.90;;;;;;6274127;28;20782;-63
2021/01/06 07:39:21;;;;;;;7.20;5.63;;;4.80;99.90;;;;;;6274183;28;20482;-63
2021/01/06 07:42:36;;;;;;;8.20;5.67;;;4.80;99.90;;;;;;6274123;28;20471;-63
2021/01/06 07:45:41;;;;;;;6.77;5.53;;;4.80;99.90;;;;;;6274287;28;20483;-63
2021/01/06 07:49:01;;;;;;;7.07;6.37;;;4.80;99.90;;;;;;6269695;28;20474;-63
2021/01/06 07:52:15;;;;;;;8.07;7.27;;;4.80;99.90;;;;;;6273813;28;20867;-63
2021/01/06 07:55:23;;;;;;;8.17;7.37;;;4.70;99.90;;;;;;6273798;28;20473;-63
2021/01/06 07:58:32;;;;;;;8.27;7.33;;;4.70;99.90;;;;;;6277316;28;20812;-57
2021/01/06 08:01:44;;;;;;;7.43;6.63;;;4.70;99.90;;;;;;6278049;28;20492;-57
2021/01/06 08:05:06;;;;;;;7.57;6.77;;;4.60;99.90;;;;;;6278260;28;20478;-57
2021/01/06 08:08:11;;;;;;;10.83;7.20;;;4.60;99.90;;;;;;6278507;28;20439;-57
2021/01/06 08:11:16;;;;;;;8.03;7.03;;;4.60;99.90;;;;;;6277737;28;20454;-58
2021/01/06 08:14:23;;;;;;;9.53;8.33;;;4.60;99.90;;;;;;6277401;28;20955;-57
2021/01/06 08:17:37;;;;;;;10.03;7.30;;;4.60;99.90;;;;;;6278081;28;20458;-57
2021/01/06 08:20:46;;;;;;;10.20;7.30;;;4.60;99.90;;;;;;6277694;28;20955;-57
2021/01/06 08:23:59;;;;;;;9.83;7.43;;;4.60;99.90;;;;;;6253381;28;20464;-57
2021/01/06 08:27:03;;;;;;;9.10;8.20;;;4.70;99.90;;;;;;6252883;28;20986;-57
2021/01/06 08:30:18;;;;;;;9.17;7.30;;;4.70;99.90;;;;;;6272390;28;20466;-60
2021/01/06 08:33:21;;;;;;;7.93;7.10;;;4.80;99.90;;;;;;6277579;28;20477;-60
2021/01/06 08:36:37;;;;;;;7.27;6.53;;;4.80;99.90;;;;;;6277315;28;20477;-60
2021/01/06 08:39:52;;;;;;;10.40;7.10;;;4.90;99.90;;;;;;6277463;28;20486;-59
2021/01/06 08:42:55;;;;;;;10.13;7.60;;;5.00;99.90;;;;;;6277583;28;20470;-59
2021/01/06 08:46:00;;;;;;;12.87;7.10;;;5.10;99.90;;;;;;6277283;28;20478;-59
2021/01/06 08:49:10;;;;;;;7.97;6.70;;;5.00;99.90;;;;;;6277053;28;20481;-59
2021/01/06 08:52:25;;;;;;;7.77;6.70;;;5.00;99.90;;;;;;6267827;28;20500;-60
2021/01/06 08:55:31;;;;;;;7.60;6.80;;;5.20;99.90;;;;;;6277081;28;20478;-60
2021/01/06 08:58:42;;;;;;;10.23;6.77;;;5.10;99.90;;;;;;6276755;28;20485;-60
2021/01/06 09:01:50;;;;;;;8.00;6.27;;;5.30;99.90;;;;;;6277128;28;20490;-60
2021/01/06 09:04:53;;;;;;;9.07;7.20;;;5.50;99.90;;;;;;6276558;28;20485;-60
2021/01/06 09:07:55;;;;;;;9.03;7.10;;;5.70;99.90;;;;;;6275984;28;20447;-60
2021/01/06 09:11:27;;;;;;;7.10;6.40;;;5.80;99.90;;;;;;6275837;28;20466;-60
2021/01/06 09:14:32;;;;;;;12.53;8.07;;;6.00;99.90;;;;;;6263220;28;20462;-60
2021/01/06 09:17:44;;;;;;;9.57;8.10;;;6.10;99.90;;;;;;6276187;28;20812;-59
2021/01/06 09:21:09;;;;;;;9.97;7.70;;;6.10;99.90;;;;;;6274314;28;20532;-60
2021/01/06 09:24:15;;;;;;;7.83;6.97;;;6.20;99.90;;;;;;6275074;28;20477;-60
2021/01/06 09:27:27;;;;;;;8.13;7.30;;;6.30;99.90;;;;;;6274772;28;20465;-60
2021/01/06 09:30:34;;;;;;;8.30;7.00;;;6.30;99.90;;;;;;6275630;28;20470;-60
2021/01/06 09:33:40;;;;;;;7.93;7.13;;;6.30;99.90;;;;;;6274667;28;20470;-60
2021/01/06 09:36:43;;;;;;;8.03;6.80;;;6.20;99.90;;;;;;6275400;28;20545;-60
2021/01/06 09:39:47;;;;;;;8.73;7.53;;;5.90;99.90;;;;;;6274683;28;20462;-60
2021/01/06 09:42:57;;;;;;;10.57;6.67;;;5.70;99.90;;;;;;6274604;28;20970;-60
2021/01/06 09:46:00;;;;;;;8.17;5.47;;;5.60;99.90;;;;;;6275242;28;20539;-61
2021/01/06 09:49:07;;;;;;;7.17;5.97;;;5.40;99.90;;;;;;6275192;28;20466;-61
2021/01/06 09:52:18;;;;;;;7.33;6.40;;;5.30;99.90;;;;;;6275315;28;20966;-61
2021/01/06 09:55:23;;;;;;;6.53;5.43;;;5.20;99.90;;;;;;6270881;28;20583;-61
2021/01/06 09:58:32;;;;;;;7.63;6.60;;;5.20;99.90;;;;;;6275442;28;20474;-61
2021/01/06 10:01:40;;;;;;;10.70;7.37;;;5.00;99.90;;;;;;6275054;28;20825;-61
2021/01/06 10:04:45;;;;;;;7.27;6.33;;;5.00;99.90;;;;;;6274884;28;20473;-61
2021/01/06 10:07:51;;;;;;;8.30;7.50;;;5.10;99.90;;;;;;6271922;28;20476;-61
2021/01/06 10:11:00;;;;;;;7.20;5.77;;;5.00;99.90;;;;;;6274481;28;20519;-61
2021/01/06 10:14:24;;;;;;;7.70;6.67;;;4.90;99.90;;;;;;6274177;28;20473;-61
2021/01/06 10:17:33;;;;;;;8.40;6.40;;;4.70;99.90;;;;;;6271802;28;21045;-61
2021/01/06 10:20:39;;;;;;;7.60;6.80;;;4.70;99.90;;;;;;6273479;28;20797;-61
2021/01/06 10:24:18;;;;;;;8.03;6.37;;;4.70;99.90;;;;;;6273814;28;20458;-61
2021/01/06 10:27:27;;;;;;;7.47;6.60;;;4.60;99.90;;;;;;6273334;28;20477;-61
2021/01/06 10:30:32;;;;;;;7.80;6.83;;;4.40;99.90;;;;;;6271612;28;20484;-61
2021/01/06 10:33:36;;;;;;;10.07;6.23;;;4.40;99.90;;;;;;6274202;28;20993;-61
2021/01/06 10:37:00;;;;;;;6.83;5.23;;;4.50;99.90;;;;;;6273692;28;20492;-61
2021/01/06 10:40:15;;;;;;;6.67;5.90;;;4.40;99.90;;;;;;6274194;28;20478;-60
2021/01/06 10:43:46;;;;;;;9.07;6.50;;;4.50;99.90;;;;;;6270346;28;20477;-61
2021/01/06 10:46:50;;;;;;;7.30;6.10;;;4.40;99.90;;;;;;6238306;28;20856;-61
2021/01/06 10:49:58;;;;;;;9.53;6.53;;;4.50;99.90;;;;;;6272545;28;20458;-61
2021/01/06 10:53:04;;;;;;;8.90;6.80;;;4.40;99.90;;;;;;6270577;28;20895;-61
2021/01/06 10:56:08;;;;;;;8.97;7.10;;;4.40;99.90;;;;;;6273855;28;20438;-61
2021/01/06 10:59:15;;;;;;;8.43;7.07;;;4.40;99.90;;;;;;6272752;28;20449;-61
2021/01/06 11:02:25;;;;;;;8.17;7.30;;;4.30;99.90;;;;;;6272977;28;20474;-61
2021/01/06 11:05:31;;;;;;;10.60;8.00;;;4.30;99.90;;;;;;6272559;28;20481;-61
2021/01/06 11:09:07;;;;;;;8.13;6.93;;;4.40;99.90;;;;;;6272409;28;20931;-61
2021/01/06 11:12:38;;;;;;;9.70;7.50;;;4.50;99.90;;;;;;6272349;28;20474;-61
2021/01/06 11:15:58;;;;;;;8.10;7.30;;;4.60;99.90;;;;;;6270269;28;20558;-60
2021/01/06 11:19:01;;;;;;;7.00;6.30;;;4.60;99.90;;;;;;6270202;28;21095;-61
2021/01/06 11:22:17;;;;;;;7.63;5.83;;;4.70;99.90;;;;;;6272295;28;20470;-62
2021/01/06 11:25:43;;;;;;;7.10;6.20;;;4.80;99.90;;;;;;6272175;28;21025;-61
2021/01/06 11:28:53;;;;;;;6.37;5.80;;;4.70;99.90;;;;;;6267643;28;20474;-63
2021/01/06 11:32:31;;;;;;;7.40;6.10;;;4.80;99.90;;;;;;6273889;28;20776;-61
2021/01/06 11:35:43;;;;;;;7.23;5.90;;;4.80;99.90;;;;;;6274170;28;20474;-61
2021/01/06 11:38:52;;;;;;;6.67;6.07;;;4.90;99.90;;;;;;6275856;28;20484;-61
2021/01/06 11:42:13;;;;;;;6.70;6.03;;;5.00;99.90;;;;;;6278906;28;20482;-60
2021/01/06 11:45:17;;;;;;;6.00;5.40;;;5.10;99.90;;;;;;6268854;28;20474;-61
2021/01/06 11:48:32;;;;;;;8.07;7.30;;;5.10;99.90;;;;;;6275569;28;20470;-62
2021/01/06 11:51:36;;;;;;;9.00;5.93;;;5.00;99.90;;;;;;6276716;28;20477;-62
2021/01/06 11:54:45;;;;;;;6.77;6.07;;;5.00;99.90;;;;;;6277748;28;21024;-61
2021/01/06 11:58:02;;;;;;;7.87;6.33;;;5.00;99.90;;;;;;6278041;28;20474;-61
2021/01/06 12:01:37;;;;;;;7.10;5.87;;;5.00;99.90;;;;;;6277215;28;20489;-61
2021/01/06 12:05:02;;;;;;;9.30;6.70;;;5.10;99.90;;;;;;6248682;28;20460;-60
2021/01/06 12:08:19;;;;;;;7.60;6.17;;;5.30;99.90;;;;;;6275054;28;20919;-61
2021/01/06 12:11:27;;;;;;;8.53;7.17;;;5.50;99.90;;;;;;6278153;28;20470;-61
2021/01/06 12:14:37;;;;;;;9.20;6.10;;;5.60;99.90;;;;;;6277405;28;20497;-62
2021/01/06 12:17:51;;;;;;;5.90;5.40;;;5.80;99.90;;;;;;6277993;28;20479;-62
2021/01/06 12:20:54;;;;;;;6.47;5.50;;;6.00;99.90;;;;;;6277505;28;20474;-60
2021/01/06 12:24:16;;;;;;;6.60;5.70;;;6.40;99.90;;;;;;6277579;28;20470;-62
2021/01/06 12:28:00;;;;;;;6.97;5.83;;;7.20;99.90;;;;;;6277473;28;20482;-61
2021/01/06 12:31:13;;;;;;;6.03;5.43;;;8.80;99.90;;;;;;6256390;28;20467;-64
2021/01/06 12:34:20;;;;;;;7.67;5.17;;;10.60;96.60;;;;;;6277237;28;20919;-62
2021/01/06 12:37:27;;;;;;;6.73;5.40;;;12.00;93.10;;;;;;6277160;28;20473;-61
2021/01/06 12:40:31;;;;;;;4.30;4.00;;;12.70;89.40;;;;;;6276867;28;20470;-62
2021/01/06 12:43:39;;;;;;;6.67;6.07;;;12.40;85.30;;;;;;6275716;28;20481;-61
2021/01/06 12:46:47;;;;;;;5.67;5.17;;;11.90;85.40;;;;;;6275481;28;20485;-59
2021/01/06 12:50:01;;;;;;;5.13;4.63;;;11.30;86.20;;;;;;6276934;28;20467;-60
2021/01/06 12:53:14;;;;;;;5.80;5.30;;;10.60;89.50;;;;;;6276382;28;20461;-61
2021/01/06 12:56:28;;;;;;;7.00;6.30;;;10.00;90.50;;;;;;6276510;28;20467;-60
2021/01/06 12:59:42;;;;;;;7.33;6.47;;;9.40;92.00;;;;;;6276710;28;20481;-61
2021/01/06 13:02:47;;;;;;;6.67;6.03;;;9.00;93.00;;;;;;6276504;28;20992;-61
2021/01/06 13:05:54;;;;;;;7.27;6.60;;;8.60;94.00;;;;;;6271851;28;20496;-61
2021/01/06 13:09:02;;;;;;;6.70;6.10;;;8.20;94.60;;;;;;6276264;28;20478;-61
2021/01/06 13:12:27;;;;;;;7.10;6.47;;;8.00;95.20;;;;;;6276406;28;20474;-62
2021/01/06 13:15:35;;;;;;;6.50;5.90;;;7.80;95.90;;;;;;6276222;28;20967;-61
2021/01/06 13:18:46;;;;;;;7.03;6.33;;;7.50;96.30;;;;;;6275877;28;20545;-61
2021/01/06 13:22:15;;;;;;;6.47;5.87;;;7.20;96.90;;;;;;6251531;28;20480;-62
2021/01/06 13:25:30;;;;;;;6.37;5.77;;;7.00;97.90;;;;;;6251559;28;20495;-62
2021/01/06 13:28:37;;;;;;;6.03;5.50;;;6.80;98.80;;;;;;6251056;28;20471;-62
2021/01/06 13:31:46;;;;;;;5.80;5.30;;;6.70;99.20;;;;;;6251427;28;20490;-62
2021/01/06 13:34:53;;;;;;;5.13;4.73;;;6.60;99.50;;;;;;6251092;28;20928;-61
2021/01/06 13:38:10;;;;;;;6.13;5.60;;;6.60;99.50;;;;;;6292898;28;20477;-61
2021/01/06 13:41:21;;;;;;;6.37;5.80;;;6.60;99.70;;;;;;6275669;28;20940;-61
2021/01/06 13:44:38;;;;;;;6.17;5.67;;;6.50;99.90;;;;;;6275426;28;20467;-61
2021/01/06 13:47:43;;;;;;;6.83;6.13;;;6.40;99.90;;;;;;6265896;28;20478;-61
2021/01/06 13:50:51;;;;;;;5.33;4.83;;;6.60;99.90;;;;;;6275398;28;20482;-61
2021/01/06 13:54:01;;;;;;;5.13;4.63;;;6.70;99.80;;;;;;6271491;28;20466;-59
2021/01/06 13:57:06;;;;;;;5.60;5.10;;;6.50;99.40;;;;;;6275116;28;20512;-59
2021/01/06 14:00:21;;;;;;;6.33;5.77;;;6.30;99.80;;;;;;6275576;28;20480;-60
2021/01/06 14:03:40;;;;;;;6.67;5.73;;;6.10;99.90;;;;;;6275121;28;20474;-61
2021/01/06 14:06:54;;;;;;;7.10;5.73;;;6.00;99.90;;;;;;6275058;28;20493;-60
2021/01/06 14:10:08;;;;;;;7.00;6.40;;;5.80;99.90;;;;;;6271444;28;20481;-60
2021/01/06 14:13:23;;;;;;;7.10;6.40;;;5.60;99.90;;;;;;6249592;28;20521;-61
2021/01/06 14:16:52;;;;;;;7.83;7.13;;;5.40;99.90;;;;;;6273276;28;20483;-60
2021/01/06 14:20:09;;;;;;;7.53;6.73;;;5.10;99.90;;;;;;6257417;28;20545;-60
2021/01/06 14:23:27;;;;;;;7.60;6.97;;;5.00;99.90;;;;;;6250258;28;20420;-60
2021/01/06 14:26:36;;;;;;;7.70;7.00;;;5.00;99.90;;;;;;6250733;28;20975;-61
2021/01/06 14:30:00;;;;;;;7.27;6.57;;;4.90;99.90;;;;;;6274438;28;20474;-61
2021/01/06 14:33:20;;;;;;;7.50;6.67;;;4.80;99.90;;;;;;6274288;28;20962;-60
2021/01/06 14:36:29;;;;;;;8.30;7.27;;;4.70;99.90;;;;;;6274469;28;20486;-60
2021/01/06 14:39:41;;;;;;;7.40;6.80;;;4.70;99.90;;;;;;6274606;28;20474;-61
2021/01/06 14:42:56;;;;;;;8.13;7.33;;;4.70;99.90;;;;;;6274403;28;20477;-60
2021/01/06 14:46:12;;;;;;;7.33;6.63;;;4.80;99.90;;;;;;6254219;28;20941;-61
2021/01/06 14:49:21;;;;;;;8.87;8.07;;;4.80;99.90;;;;;;6274373;28;20474;-61
2021/01/06 14:52:27;;;;;;;7.50;6.80;;;4.80;99.90;;;;;;6273996;28;20489;-61
2021/01/06 14:55:33;;;;;;;7.60;6.80;;;4.80;99.90;;;;;;6274096;28;20474;-60
2021/01/06 14:58:40;;;;;;;8.37;7.27;;;4.80;99.90;;;;;;6274147;28;20483;-60
2021/01/06 15:01:47;;;;;;;8.63;7.77;;;4.90;99.90;;;;;;6273974;28;20478;-62
2021/01/06 15:05:22;;;;;;;10.00;7.73;;;4.90;99.90;;;;;;6274255;28;20478;-61
2021/01/06 15:08:30;;;;;;;8.53;6.97;;;4.90;99.90;;;;;;6278474;28;20919;-61
2021/01/06 15:11:38;;;;;;;7.20;6.50;;;5.00;99.90;;;;;;6279047;28;20471;-61
2021/01/06 15:14:46;;;;;;;8.37;7.57;;;5.00;99.90;;;;;;6270043;28;20485;-59
2021/01/06 15:17:52;;;;;;;7.93;7.23;;;5.10;99.90;;;;;;6279038;28;20474;-61
2021/01/06 15:20:58;;;;;;;8.73;7.70;;;5.10;99.90;;;;;;6278845;28;20473;-61
2021/01/06 15:24:05;;;;;;;8.10;6.30;;;5.20;99.90;;;;;;6278774;28;20466;-61
2021/01/06 15:27:16;;;;;;;7.27;6.67;;;5.20;99.90;;;;;;6278275;28;20484;-63
2021/01/06 15:30:24;;;;;;;9.50;8.53;;;5.20;99.90;;;;;;6278568;28;20475;-61
2021/01/06 15:33:37;;;;;;;9.07;7.93;;;5.20;99.90;;;;;;6278627;28;20477;-61
2021/01/06 15:36:42;;;;;;;10.10;9.10;;;5.30;99.90;;;;;;6278693;28;20482;-61
2021/01/06 15:39:44;;;;;;;10.57;9.63;;;5.30;99.90;;;;;;6278298;28;20474;-61
2021/01/06 15:42:48;;;;;;;8.70;7.80;;;5.30;99.90;;;;;;6278298;28;20474;-61
2021/01/06 15:45:51;;;;;;;8.53;7.73;;;5.40;99.90;;;;;;6277979;28;20565;-61
2021/01/06 15:48:59;;;;;;;10.23;9.13;;;5.30;99.90;;;;;;6253400;28;20474;-63
2021/01/06 15:52:19;;;;;;;8.87;7.97;;;5.30;99.90;;;;;;6270951;28;20876;-60
2021/01/06 15:55:26;;;;;;;10.00;8.57;;;5.30;99.90;;;;;;6253164;28;20973;-61
2021/01/06 15:58:28;;;;;;;8.80;8.00;;;5.30;99.90;;;;;;6253041;28;20558;-63
2021/01/06 16:01:31;;;;;;;8.40;7.60;;;5.30;99.90;;;;;;6253128;28;20467;-61
2021/01/06 16:04:36;;;;;;;9.97;8.90;;;5.30;99.90;;;;;;6253297;28;20560;-60
2021/01/06 16:07:46;;;;;;;10.93;9.83;;;5.30;99.90;;;;;;6252884;28;20566;-60
2021/01/06 16:10:55;;;;;;;10.00;8.97;;;5.30;99.90;;;;;;6262946;28;20479;-60
2021/01/06 16:13:59;;;;;;;9.77;8.77;;;5.30;99.90;;;;;;6277838;28;20561;-61
2021/01/06 16:17:15;;;;;;;11.27;9.63;;;5.30;99.90;;;;;;6273726;28;20430;-61
2021/01/06 16:20:23;;;;;;;11.20;9.53;;;5.30;99.90;;;;;;6277061;28;20462;-62
2021/01/06 16:23:29;;;;;;;11.57;10.37;;;5.30;99.90;;;;;;6277762;28;20458;-60
2021/01/06 16:26:35;;;;;;;12.77;11.47;;;5.30;99.90;;;;;;6277396;28;20478;-62
2021/01/06 16:29:40;;;;;;;12.57;10.67;;;5.30;99.90;;;;;;6277708;28;20473;-64
2021/01/06 16:33:11;;;;;;;10.63;9.63;;;5.30;99.90;;;;;;6277583;28;20469;-61
2021/01/06 16:36:25;;;;;;;12.27;11.07;;;5.20;99.90;;;;;;6277203;28;20467;-62
2021/01/06 16:39:29;;;;;;;11.60;10.43;;;5.20;99.90;;;;;;6277237;28;20588;-61